KPSM/PSM METAR and TAF weather

Enter ICAO airport designator
Station Type Date Time Source
KPSM METAR 2022/12/08 10:55 UTC NOAA

KPSM 081055Z 29010KT 10SM CLR 07/05 A3008 RMK AO2A SLP189 T00720047


Station Type Date Time Source
KPSM Decoded METAR 2022/12/08 10:55 UTC NOAA

Pease Air Force Base / Portsmouth, NH, United States (KPSM) 43-05N 070-49W
Dec 08, 2022 - 05:55 AM EST / 2022.12.08 1055 UTC
Wind: from the WNW (290 degrees) at 12 MPH (10 KT):0
Visibility: 10 mile(s):0
Sky conditions: clear
Temperature: 45.0 F (7.2 C)
Dew Point: 40.5 F (4.7 C)
Relative Humidity: 84%
Pressure (altimeter): 30.08 in. Hg (1018 hPa)
ob: KPSM 081055Z 29010KT 10SM CLR 07/05 A3008 RMK AO2A SLP189 T00720047
cycle: 11

Station Type Date Time Source
KPSM TAF 2022/12/08 12:28 UTC NOAA

TAF KPSM 081126Z 0812/0912 30009KT P6SM FEW050
FM081400 31010G18KT P6SM FEW040
FM090000 33008KT P6SM FEW250

Example: see airport list